ETNLEDDS

Guest
Details From ETNL - Laage
To EDDS - Stuttgart
Flight Number -
Tags Generated
Created
Modified
Stats Distance 335 nm / 620 km
Max Altitude 0 ft / 0 m
Waypoints 3
Social Downloads 0
Likes 0
Share VATSIM

Download

Looking for another format? Having issues loading an existing format? Contact us
Advertisement - Login to hide

Notes

Generated

Route

ETNL DS020 EDDS

ID Type Via Altitude Latitude Longitude Leg Dist Tot Dist Heading (true) Name
O ETNL APT - 0 ft / 0 m 53.91967˚ 12.26033˚ - 0 nm - -
DS020 FIX - 0 ft / 0 m 48.91306˚ 9.34000˚ 319 nm 319 nm 201° / 199° -
O EDDS APT - 0 ft / 0 m 48.68573˚ 9.20013˚ 14 nm 334 nm 202° / 202° -

Altitude Profile

Advertisement - Login to hide

Weather


0- 5 10 15 20 25 30 35+ Temperature / ° C

Clouds and Precipitation
Forecast for 2018-05-23 12:00 UTC. Updated 22 minutes ago

Ground ~20,000 ft ~40,000 ft Winds

ETNL

Details ICAO ETNL (RLG)
Name Laage
Region Germany - Military
Timezone Europe/Berlin (UTC+2.0)
Stats Elevation 138 ft / 42 m (AMSL)
Location 53.918084° 12.279250°
Runways 1
Magnetic Variation 3.580° E

METAR

ETNL 230920Z 07012KT 9999 FEW200 BKN290 21/08 Q1023 BLU+BLU+

Decode

TAF

TAF TAF AMD ETNL 230400Z 2223/2311 07012KT 9999 NSW FEW300 CANCEL 0500Z BY ETGL

Decode

Departure Runways

ID Width Length Bearing (true) Bearing (mag) Surface Threshold Offset Overrun Length
10 148 ft / 45 m 8,213 ft / 2,503 m 98.07° 94.49° Concrete 0 ft / 0 m 1,001 ft / 305 m
28 148 ft / 45 m 8,213 ft / 2,503 m 278.10° 274.52° Concrete 0 ft / 0 m 1,001 ft / 305 m

EDDS

Details ICAO EDDS (STR)
Name Stuttgart
Region Germany - Civil
Timezone Europe/Berlin (UTC+2.0)
Stats Elevation 1,273 ft / 388 m (AMSL)
Location 48.689876° 9.221962°
Runways 1
Magnetic Variation 2.578° E

METAR

EDDS 230920Z VRB02KT 9999 FEW015 BKN060 BKN090 17/13 Q1018 NOSIG

Decode

TAF

TAF TAF EDDS 230500Z 2306/2406 VRB03KT CAVOK BECMG 2309/2311 01005KT PROB30 TEMPO 2312/2318 TSRA SCT040CB BECMG 2319/2321 VRB03KT

Decode

Destination Runways

ID Width Length Bearing (true) Bearing (mag) Surface Threshold Offset Overrun Length
07 148 ft / 45 m 10,950 ft / 3,337 m 73.96° 71.38° Concrete 981 ft / 299 m 157 ft / 48 m
25 148 ft / 45 m 10,950 ft / 3,337 m 253.99° 251.41° Concrete 0 ft / 0 m 157 ft / 48 m

Approach Navaids

Runway Type Ident Frequency Range Bearing (true) Bearing (mag) Slope Elevation
07 Localiser ISTE 110.90 MHz 18 nm / 33 km 73.99° 71.41° - 1,181 ft / 360 m (AMSL)
07 Glidescope ISTE 110.90 MHz 10 nm / 19 km 73.97° 71.39° 3.00° 1,267 ft / 386 m (AMSL)
07 DME ISTE 115.45 MHz 18 nm / 33 km - - - 1,332 ft / 406 m (AMSL)
25 Localiser ISTW 109.90 MHz 18 nm / 33 km 253.95° 251.37° - 1,267 ft / 386 m (AMSL)
25 Glidescope ISTW 109.90 MHz 10 nm / 19 km 253.97° 251.39° 3.00° 1,181 ft / 360 m (AMSL)
25 DME ISTW 115.45 MHz 18 nm / 33 km - - - 1,332 ft / 406 m (AMSL)

Popular Alternatives